sensor_id;sensor_type;location;lat;lon;timestamp;temperature;humidity
18930;DHT22;43305;52.186;5.598;2023-04-03T00:00:36;3.50;99.90
18930;DHT22;43305;52.186;5.598;2023-04-03T00:03:03;3.50;99.90
18930;DHT22;43305;52.186;5.598;2023-04-03T00:05:30;3.50;99.90
18930;DHT22;43305;52.186;5.598;2023-04-03T00:07:58;3.50;99.90
18930;DHT22;43305;52.186;5.598;2023-04-03T00:10:26;3.50;99.90
18930;DHT22;43305;52.186;5.598;2023-04-03T00:12:53;3.40;99.90
18930;DHT22;43305;52.186;5.598;2023-04-03T00:15:21;3.40;99.90
18930;DHT22;43305;52.186;5.598;2023-04-03T00:17:48;3.40;99.90
18930;DHT22;43305;52.186;5.598;2023-04-03T00:20:15;3.40;99.90
18930;DHT22;43305;52.186;5.598;2023-04-03T00:22:42;3.40;99.90
18930;DHT22;43305;52.186;5.598;2023-04-03T00:25:09;3.40;99.90
18930;DHT22;43305;52.186;5.598;2023-04-03T00:27:38;3.30;99.90
18930;DHT22;43305;52.186;5.598;2023-04-03T00:30:07;3.30;99.90
18930;DHT22;43305;52.186;5.598;2023-04-03T00:32:35;3.30;99.90
18930;DHT22;43305;52.186;5.598;2023-04-03T00:35:04;3.20;99.90
18930;DHT22;43305;52.186;5.598;2023-04-03T00:37:31;3.20;99.90
18930;DHT22;43305;52.186;5.598;2023-04-03T00:39:58;3.20;99.90
18930;DHT22;43305;52.186;5.598;2023-04-03T00:42:26;3.20;99.90
18930;DHT22;43305;52.186;5.598;2023-04-03T00:45:25;3.20;99.90
18930;DHT22;43305;52.186;5.598;2023-04-03T00:47:52;3.20;99.90
18930;DHT22;43305;52.186;5.598;2023-04-03T00:50:20;3.20;99.90
18930;DHT22;43305;52.186;5.598;2023-04-03T00:52:47;3.10;99.90
18930;DHT22;43305;52.186;5.598;2023-04-03T00:55:16;3.10;99.90
18930;DHT22;43305;52.186;5.598;2023-04-03T00:57:46;3.10;99.90
18930;DHT22;43305;52.186;5.598;2023-04-03T01:00:16;3.00;99.90
18930;DHT22;43305;52.186;5.598;2023-04-03T01:02:45;3.00;99.90
18930;DHT22;43305;52.186;5.598;2023-04-03T01:05:15;3.00;99.90
18930;DHT22;43305;52.186;5.598;2023-04-03T01:07:43;3.00;99.90
18930;DHT22;43305;52.186;5.598;2023-04-03T01:10:13;2.90;99.90
18930;DHT22;43305;52.186;5.598;2023-04-03T01:12:43;2.90;99.90
18930;DHT22;43305;52.186;5.598;2023-04-03T01:15:13;2.90;99.90
18930;DHT22;43305;52.186;5.598;2023-04-03T01:17:42;2.80;99.90
18930;DHT22;43305;52.186;5.598;2023-04-03T01:20:56;2.80;99.90
18930;DHT22;43305;52.186;5.598;2023-04-03T01:23:31;2.80;99.90
18930;DHT22;43305;52.186;5.598;2023-04-03T01:26:01;2.80;99.90
18930;DHT22;43305;52.186;5.598;2023-04-03T01:28:30;2.80;99.90
18930;DHT22;43305;52.186;5.598;2023-04-03T01:31:02;2.70;99.90
18930;DHT22;43305;52.186;5.598;2023-04-03T01:33:34;2.70;99.90
18930;DHT22;43305;52.186;5.598;2023-04-03T01:36:01;2.70;99.90
18930;DHT22;43305;52.186;5.598;2023-04-03T01:38:29;2.60;99.90
18930;DHT22;43305;52.186;5.598;2023-04-03T01:40:56;2.60;99.90
18930;DHT22;43305;52.186;5.598;2023-04-03T01:43:23;2.60;99.90
18930;DHT22;43305;52.186;5.598;2023-04-03T01:45:50;2.60;99.90
18930;DHT22;43305;52.186;5.598;2023-04-03T01:48:20;2.50;99.90
18930;DHT22;43305;52.186;5.598;2023-04-03T01:50:48;2.50;99.90
18930;DHT22;43305;52.186;5.598;2023-04-03T01:53:16;2.50;99.90
18930;DHT22;43305;52.186;5.598;2023-04-03T01:55:43;2.40;99.90
18930;DHT22;43305;52.186;5.598;2023-04-03T01:58:10;2.50;99.90
18930;DHT22;43305;52.186;5.598;2023-04-03T02:00:37;2.40;99.90
18930;DHT22;43305;52.186;5.598;2023-04-03T02:03:04;2.40;99.90
18930;DHT22;43305;52.186;5.598;2023-04-03T02:05:32;2.40;99.90
18930;DHT22;43305;52.186;5.598;2023-04-03T02:08:01;2.40;99.90
18930;DHT22;43305;52.186;5.598;2023-04-03T02:10:28;2.30;99.90
18930;DHT22;43305;52.186;5.598;2023-04-03T02:12:55;2.30;99.90
18930;DHT22;43305;52.186;5.598;2023-04-03T02:15:22;2.30;99.90
18930;DHT22;43305;52.186;5.598;2023-04-03T02:17:49;2.30;99.90
18930;DHT22;43305;52.186;5.598;2023-04-03T02:20:19;2.20;99.90
18930;DHT22;43305;52.186;5.598;2023-04-03T02:22:47;2.20;99.90
18930;DHT22;43305;52.186;5.598;2023-04-03T02:25:16;2.20;99.90
18930;DHT22;43305;52.186;5.598;2023-04-03T02:27:43;2.20;99.90
18930;DHT22;43305;52.186;5.598;2023-04-03T02:30:11;2.10;99.90
18930;DHT22;43305;52.186;5.598;2023-04-03T02:32:39;2.10;99.90
18930;DHT22;43305;52.186;5.598;2023-04-03T02:35:07;2.10;99.90
18930;DHT22;43305;52.186;5.598;2023-04-03T02:37:34;2.10;99.90
18930;DHT22;43305;52.186;5.598;2023-04-03T02:40:01;2.10;99.90
18930;DHT22;43305;52.186;5.598;2023-04-03T02:42:29;2.10;99.90
18930;DHT22;43305;52.186;5.598;2023-04-03T02:44:56;2.10;99.90
18930;DHT22;43305;52.186;5.598;2023-04-03T02:47:25;2.00;99.90
18930;DHT22;43305;52.186;5.598;2023-04-03T02:49:52;2.10;99.90
18930;DHT22;43305;52.186;5.598;2023-04-03T02:52:20;2.00;99.90
18930;DHT22;43305;52.186;5.598;2023-04-03T02:54:47;2.00;99.90
18930;DHT22;43305;52.186;5.598;2023-04-03T02:57:14;2.00;99.90
18930;DHT22;43305;52.186;5.598;2023-04-03T02:59:43;2.00;99.90
18930;DHT22;43305;52.186;5.598;2023-04-03T03:02:10;1.90;99.90
18930;DHT22;43305;52.186;5.598;2023-04-03T03:04:37;2.00;99.90
18930;DHT22;43305;52.186;5.598;2023-04-03T03:07:04;1.90;99.90
18930;DHT22;43305;52.186;5.598;2023-04-03T03:09:31;1.90;99.90
18930;DHT22;43305;52.186;5.598;2023-04-03T03:11:58;1.90;99.90
18930;DHT22;43305;52.186;5.598;2023-04-03T03:14:25;1.80;99.90
18930;DHT22;43305;52.186;5.598;2023-04-03T03:16:54;1.80;99.90
18930;DHT22;43305;52.186;5.598;2023-04-03T03:19:21;1.80;99.90
18930;DHT22;43305;52.186;5.598;2023-04-03T03:21:50;1.80;99.90
18930;DHT22;43305;52.186;5.598;2023-04-03T03:24:17;1.80;99.90
18930;DHT22;43305;52.186;5.598;2023-04-03T03:26:47;1.80;99.90
18930;DHT22;43305;52.186;5.598;2023-04-03T03:29:14;1.80;99.90
18930;DHT22;43305;52.186;5.598;2023-04-03T03:31:41;1.70;99.90
18930;DHT22;43305;52.186;5.598;2023-04-03T03:34:10;1.80;99.90
18930;DHT22;43305;52.186;5.598;2023-04-03T03:36:37;1.70;99.90
18930;DHT22;43305;52.186;5.598;2023-04-03T03:39:05;1.70;99.90
18930;DHT22;43305;52.186;5.598;2023-04-03T03:41:32;1.70;99.90
18930;DHT22;43305;52.186;5.598;2023-04-03T03:43:59;1.70;99.90
18930;DHT22;43305;52.186;5.598;2023-04-03T03:46:26;1.70;99.90
18930;DHT22;43305;52.186;5.598;2023-04-03T03:48:53;1.70;99.90
18930;DHT22;43305;52.186;5.598;2023-04-03T03:51:22;1.60;99.90
18930;DHT22;43305;52.186;5.598;2023-04-03T03:53:49;1.60;99.90
18930;DHT22;43305;52.186;5.598;2023-04-03T03:56:16;1.60;99.90
18930;DHT22;43305;52.186;5.598;2023-04-03T03:58:44;1.60;99.90
18930;DHT22;43305;52.186;5.598;2023-04-03T04:01:11;1.60;99.90
18930;DHT22;43305;52.186;5.598;2023-04-03T04:03:38;1.60;99.90
18930;DHT22;43305;52.186;5.598;2023-04-03T04:06:05;1.60;99.90
18930;DHT22;43305;52.186;5.598;2023-04-03T04:08:34;1.60;99.90
18930;DHT22;43305;52.186;5.598;2023-04-03T04:11:03;1.50;99.90
18930;DHT22;43305;52.186;5.598;2023-04-03T04:13:30;1.50;99.90
18930;DHT22;43305;52.186;5.598;2023-04-03T04:15:57;1.50;99.90
18930;DHT22;43305;52.186;5.598;2023-04-03T04:18:24;1.50;99.90
18930;DHT22;43305;52.186;5.598;2023-04-03T04:20:51;1.50;99.90
18930;DHT22;43305;52.186;5.598;2023-04-03T04:23:19;1.50;99.90
18930;DHT22;43305;52.186;5.598;2023-04-03T04:25:47;1.50;99.90
18930;DHT22;43305;52.186;5.598;2023-04-03T04:28:15;1.40;99.90
18930;DHT22;43305;52.186;5.598;2023-04-03T04:30:43;1.40;99.90
18930;DHT22;43305;52.186;5.598;2023-04-03T04:33:13;1.40;99.90
18930;DHT22;43305;52.186;5.598;2023-04-03T04:35:42;1.40;99.90
18930;DHT22;43305;52.186;5.598;2023-04-03T04:38:09;1.40;99.90
18930;DHT22;43305;52.186;5.598;2023-04-03T04:40:36;1.40;99.90
18930;DHT22;43305;52.186;5.598;2023-04-03T04:43:05;1.40;99.90
18930;DHT22;43305;52.186;5.598;2023-04-03T04:45:31;1.40;99.90
18930;DHT22;43305;52.186;5.598;2023-04-03T04:48:06;1.30;99.90
18930;DHT22;43305;52.186;5.598;2023-04-03T04:50:37;1.30;99.90
18930;DHT22;43305;52.186;5.598;2023-04-03T04:53:05;1.30;99.90
18930;DHT22;43305;52.186;5.598;2023-04-03T04:55:31;1.30;99.90
18930;DHT22;43305;52.186;5.598;2023-04-03T04:57:58;1.20;99.90
18930;DHT22;43305;52.186;5.598;2023-04-03T05:00:27;1.20;99.90
18930;DHT22;43305;52.186;5.598;2023-04-03T05:02:54;1.30;99.90
18930;DHT22;43305;52.186;5.598;2023-04-03T05:05:21;1.20;99.90
18930;DHT22;43305;52.186;5.598;2023-04-03T05:07:48;1.20;99.90
18930;DHT22;43305;52.186;5.598;2023-04-03T05:10:16;1.20;99.90
18930;DHT22;43305;52.186;5.598;2023-04-03T05:12:43;1.20;99.90
18930;DHT22;43305;52.186;5.598;2023-04-03T05:15:10;1.10;99.90
18930;DHT22;43305;52.186;5.598;2023-04-03T05:17:45;1.10;99.90
18930;DHT22;43305;52.186;5.598;2023-04-03T05:20:22;1.10;99.90
18930;DHT22;43305;52.186;5.598;2023-04-03T05:22:49;1.10;99.90
18930;DHT22;43305;52.186;5.598;2023-04-03T05:25:17;1.10;99.90
18930;DHT22;43305;52.186;5.598;2023-04-03T05:27:44;1.10;99.90
18930;DHT22;43305;52.186;5.598;2023-04-03T05:30:11;1.10;99.90
18930;DHT22;43305;52.186;5.598;2023-04-03T05:32:40;1.10;99.90
18930;DHT22;43305;52.186;5.598;2023-04-03T05:35:08;1.10;99.90
18930;DHT22;43305;52.186;5.598;2023-04-03T05:37:36;1.10;99.90
18930;DHT22;43305;52.186;5.598;2023-04-03T05:40:07;1.10;99.90
18930;DHT22;43305;52.186;5.598;2023-04-03T05:42:35;1.00;99.90
18930;DHT22;43305;52.186;5.598;2023-04-03T05:45:03;1.00;99.90
18930;DHT22;43305;52.186;5.598;2023-04-03T05:47:30;1.10;99.90
18930;DHT22;43305;52.186;5.598;2023-04-03T05:49:58;1.10;99.90
18930;DHT22;43305;52.186;5.598;2023-04-03T05:52:27;1.10;99.90
18930;DHT22;43305;52.186;5.598;2023-04-03T05:54:55;1.10;99.90
18930;DHT22;43305;52.186;5.598;2023-04-03T05:57:22;1.10;99.90
18930;DHT22;43305;52.186;5.598;2023-04-03T05:59:49;1.20;99.90
18930;DHT22;43305;52.186;5.598;2023-04-03T06:02:19;1.20;99.90
18930;DHT22;43305;52.186;5.598;2023-04-03T06:04:46;1.20;99.90
18930;DHT22;43305;52.186;5.598;2023-04-03T06:07:19;1.20;99.90
18930;DHT22;43305;52.186;5.598;2023-04-03T06:09:48;1.30;99.90
18930;DHT22;43305;52.186;5.598;2023-04-03T06:12:15;1.30;99.90
18930;DHT22;43305;52.186;5.598;2023-04-03T06:14:42;1.30;99.90
18930;DHT22;43305;52.186;5.598;2023-04-03T06:17:10;1.30;99.90
18930;DHT22;43305;52.186;5.598;2023-04-03T06:19:37;1.40;99.90
18930;DHT22;43305;52.186;5.598;2023-04-03T06:22:05;1.40;99.90
18930;DHT22;43305;52.186;5.598;2023-04-03T06:24:34;1.50;99.90
18930;DHT22;43305;52.186;5.598;2023-04-03T06:27:03;1.50;99.90
18930;DHT22;43305;52.186;5.598;2023-04-03T06:29:30;1.50;99.90
18930;DHT22;43305;52.186;5.598;2023-04-03T06:31:57;1.60;99.90
18930;DHT22;43305;52.186;5.598;2023-04-03T06:34:24;1.60;99.90
18930;DHT22;43305;52.186;5.598;2023-04-03T06:36:51;1.60;99.90
18930;DHT22;43305;52.186;5.598;2023-04-03T06:39:20;1.70;99.90
18930;DHT22;43305;52.186;5.598;2023-04-03T06:41:49;1.80;99.90
18930;DHT22;43305;52.186;5.598;2023-04-03T06:44:17;1.80;99.90
18930;DHT22;43305;52.186;5.598;2023-04-03T06:46:45;2.00;99.90
18930;DHT22;43305;52.186;5.598;2023-04-03T06:49:14;2.00;99.90
18930;DHT22;43305;52.186;5.598;2023-04-03T06:51:41;2.10;99.90
18930;DHT22;43305;52.186;5.598;2023-04-03T06:54:09;2.20;99.90
18930;DHT22;43305;52.186;5.598;2023-04-03T06:56:38;2.30;99.90
18930;DHT22;43305;52.186;5.598;2023-04-03T06:59:07;2.40;99.90
18930;DHT22;43305;52.186;5.598;2023-04-03T07:01:34;2.50;99.90
18930;DHT22;43305;52.186;5.598;2023-04-03T07:04:01;2.60;99.90
18930;DHT22;43305;52.186;5.598;2023-04-03T07:06:28;2.70;99.90
18930;DHT22;43305;52.186;5.598;2023-04-03T07:08:56;2.80;99.90
18930;DHT22;43305;52.186;5.598;2023-04-03T07:11:23;3.00;99.90
18930;DHT22;43305;52.186;5.598;2023-04-03T07:13:53;3.10;99.90
18930;DHT22;43305;52.186;5.598;2023-04-03T07:16:22;3.30;99.90
18930;DHT22;43305;52.186;5.598;2023-04-03T07:18:49;3.50;99.90
18930;DHT22;43305;52.186;5.598;2023-04-03T07:21:16;3.70;99.90
18930;DHT22;43305;52.186;5.598;2023-04-03T07:23:44;3.90;99.90
18930;DHT22;43305;52.186;5.598;2023-04-03T07:26:11;4.20;99.90
18930;DHT22;43305;52.186;5.598;2023-04-03T07:28:38;4.30;99.90
18930;DHT22;43305;52.186;5.598;2023-04-03T07:31:10;4.50;99.90
18930;DHT22;43305;52.186;5.598;2023-04-03T07:33:41;4.70;99.90
18930;DHT22;43305;52.186;5.598;2023-04-03T07:36:09;5.00;99.90
18930;DHT22;43305;52.186;5.598;2023-04-03T07:38:39;5.10;99.90
18930;DHT22;43305;52.186;5.598;2023-04-03T07:41:06;5.30;99.90
18930;DHT22;43305;52.186;5.598;2023-04-03T07:43:38;5.60;99.90
18930;DHT22;43305;52.186;5.598;2023-04-03T07:46:05;5.80;99.90
18930;DHT22;43305;52.186;5.598;2023-04-03T07:48:33;5.60;99.90
18930;DHT22;43305;52.186;5.598;2023-04-03T07:51:03;5.80;99.90
18930;DHT22;43305;52.186;5.598;2023-04-03T07:53:30;5.90;99.90
18930;DHT22;43305;52.186;5.598;2023-04-03T07:55:58;6.20;99.90
18930;DHT22;43305;52.186;5.598;2023-04-03T07:58:25;6.30;99.90
18930;DHT22;43305;52.186;5.598;2023-04-03T08:00:53;6.30;99.90
18930;DHT22;43305;52.186;5.598;2023-04-03T08:03:20;6.50;99.90
18930;DHT22;43305;52.186;5.598;2023-04-03T08:05:49;6.70;99.90
18930;DHT22;43305;52.186;5.598;2023-04-03T08:08:20;6.70;99.90
18930;DHT22;43305;52.186;5.598;2023-04-03T08:10:50;6.80;99.90
18930;DHT22;43305;52.186;5.598;2023-04-03T08:13:21;6.80;99.90
18930;DHT22;43305;52.186;5.598;2023-04-03T08:15:48;6.90;99.90
18930;DHT22;43305;52.186;5.598;2023-04-03T08:18:15;7.00;99.90
18930;DHT22;43305;52.186;5.598;2023-04-03T08:20:44;7.10;99.90
18930;DHT22;43305;52.186;5.598;2023-04-03T08:23:11;7.20;99.90
18930;DHT22;43305;52.186;5.598;2023-04-03T08:25:40;7.30;99.90
18930;DHT22;43305;52.186;5.598;2023-04-03T08:28:10;7.40;99.90
18930;DHT22;43305;52.186;5.598;2023-04-03T08:30:39;7.40;99.90
18930;DHT22;43305;52.186;5.598;2023-04-03T08:33:08;7.60;99.90
18930;DHT22;43305;52.186;5.598;2023-04-03T08:35:38;7.60;99.90
18930;DHT22;43305;52.186;5.598;2023-04-03T08:38:09;7.90;99.90
18930;DHT22;43305;52.186;5.598;2023-04-03T08:40:38;8.10;99.90
18930;DHT22;43305;52.186;5.598;2023-04-03T08:43:26;8.40;99.90
18930;DHT22;43305;52.186;5.598;2023-04-03T08:45:56;8.40;99.90
18930;DHT22;43305;52.186;5.598;2023-04-03T08:48:28;8.20;99.90
18930;DHT22;43305;52.186;5.598;2023-04-03T08:50:58;8.30;99.90
18930;DHT22;43305;52.186;5.598;2023-04-03T08:53:30;8.60;99.90
18930;DHT22;43305;52.186;5.598;2023-04-03T08:56:00;8.70;99.90
18930;DHT22;43305;52.186;5.598;2023-04-03T08:58:30;8.80;99.90
18930;DHT22;43305;52.186;5.598;2023-04-03T09:01:00;8.90;99.90
18930;DHT22;43305;52.186;5.598;2023-04-03T09:03:38;9.20;99.90
18930;DHT22;43305;52.186;5.598;2023-04-03T09:06:08;9.30;99.90
18930;DHT22;43305;52.186;5.598;2023-04-03T09:08:43;9.10;99.90
18930;DHT22;43305;52.186;5.598;2023-04-03T09:11:20;9.20;99.90
18930;DHT22;43305;52.186;5.598;2023-04-03T09:13:54;9.20;99.90
18930;DHT22;43305;52.186;5.598;2023-04-03T09:16:29;9.30;99.90
18930;DHT22;43305;52.186;5.598;2023-04-03T09:19:05;9.40;99.90
18930;DHT22;43305;52.186;5.598;2023-04-03T09:21:38;9.10;99.90
18930;DHT22;43305;52.186;5.598;2023-04-03T09:24:10;9.10;99.90
18930;DHT22;43305;52.186;5.598;2023-04-03T09:26:43;9.30;99.90
18930;DHT22;43305;52.186;5.598;2023-04-03T09:29:16;9.90;99.90
18930;DHT22;43305;52.186;5.598;2023-04-03T09:31:44;9.80;99.90
18930;DHT22;43305;52.186;5.598;2023-04-03T09:34:20;10.00;99.90
18930;DHT22;43305;52.186;5.598;2023-04-03T09:36:50;9.90;99.90
18930;DHT22;43305;52.186;5.598;2023-04-03T09:39:19;9.90;99.90
18930;DHT22;43305;52.186;5.598;2023-04-03T09:41:59;10.10;99.90
18930;DHT22;43305;52.186;5.598;2023-04-03T09:44:28;10.30;99.90
18930;DHT22;43305;52.186;5.598;2023-04-03T09:46:56;10.50;99.90
18930;DHT22;43305;52.186;5.598;2023-04-03T09:49:23;10.60;99.90
18930;DHT22;43305;52.186;5.598;2023-04-03T09:51:50;10.60;99.90
18930;DHT22;43305;52.186;5.598;2023-04-03T09:54:37;10.30;99.90
18930;DHT22;43305;52.186;5.598;2023-04-03T09:57:10;9.90;99.90
18930;DHT22;43305;52.186;5.598;2023-04-03T09:59:47;10.00;99.90
18930;DHT22;43305;52.186;5.598;2023-04-03T10:02:32;10.30;99.90
18930;DHT22;43305;52.186;5.598;2023-04-03T10:05:01;10.90;99.90
18930;DHT22;43305;52.186;5.598;2023-04-03T10:07:33;11.20;99.90
18930;DHT22;43305;52.186;5.598;2023-04-03T10:10:16;11.10;99.90
18930;DHT22;43305;52.186;5.598;2023-04-03T10:12:47;11.00;99.90
18930;DHT22;43305;52.186;5.598;2023-04-03T10:15:16;11.10;99.90
18930;DHT22;43305;52.186;5.598;2023-04-03T10:17:53;11.30;99.90
18930;DHT22;43305;52.186;5.598;2023-04-03T10:20:29;11.30;99.90
18930;DHT22;43305;52.186;5.598;2023-04-03T10:23:12;11.10;99.90
18930;DHT22;43305;52.186;5.598;2023-04-03T10:25:45;10.80;99.90
18930;DHT22;43305;52.186;5.598;2023-04-03T10:28:20;10.90;99.90
18930;DHT22;43305;52.186;5.598;2023-04-03T10:30:56;10.60;99.90
18930;DHT22;43305;52.186;5.598;2023-04-03T10:33:36;10.90;99.90
18930;DHT22;43305;52.186;5.598;2023-04-03T10:36:12;11.40;99.90
18930;DHT22;43305;52.186;5.598;2023-04-03T10:38:50;11.20;99.90
18930;DHT22;43305;52.186;5.598;2023-04-03T10:41:25;11.10;99.90
18930;DHT22;43305;52.186;5.598;2023-04-03T10:44:08;11.40;99.90
18930;DHT22;43305;52.186;5.598;2023-04-03T10:46:42;11.10;99.90
18930;DHT22;43305;52.186;5.598;2023-04-03T10:49:25;11.30;99.90
18930;DHT22;43305;52.186;5.598;2023-04-03T10:52:04;11.60;99.90
18930;DHT22;43305;52.186;5.598;2023-04-03T10:54:37;11.20;99.90
18930;DHT22;43305;52.186;5.598;2023-04-03T10:57:08;11.10;99.90
18930;DHT22;43305;52.186;5.598;2023-04-03T10:59:38;10.90;99.90
18930;DHT22;43305;52.186;5.598;2023-04-03T11:02:13;11.10;99.90
18930;DHT22;43305;52.186;5.598;2023-04-03T11:04:46;11.40;99.90
18930;DHT22;43305;52.186;5.598;2023-04-03T11:07:18;10.90;99.90
18930;DHT22;43305;52.186;5.598;2023-04-03T11:09:54;10.60;99.90
18930;DHT22;43305;52.186;5.598;2023-04-03T11:12:25;10.70;99.90
18930;DHT22;43305;52.186;5.598;2023-04-03T11:14:56;11.00;99.90
18930;DHT22;43305;52.186;5.598;2023-04-03T11:17:30;11.70;99.90
18930;DHT22;43305;52.186;5.598;2023-04-03T11:20:16;12.10;99.90
18930;DHT22;43305;52.186;5.598;2023-04-03T11:22:48;12.20;99.90
18930;DHT22;43305;52.186;5.598;2023-04-03T11:25:20;12.40;99.90
18930;DHT22;43305;52.186;5.598;2023-04-03T11:27:54;12.70;99.90
18930;DHT22;43305;52.186;5.598;2023-04-03T11:30:27;12.50;99.90
18930;DHT22;43305;52.186;5.598;2023-04-03T11:33:21;12.40;99.90
18930;DHT22;43305;52.186;5.598;2023-04-03T11:35:58;12.60;99.90
18930;DHT22;43305;52.186;5.598;2023-04-03T11:38:32;12.90;99.90
18930;DHT22;43305;52.186;5.598;2023-04-03T11:41:03;12.90;99.90
18930;DHT22;43305;52.186;5.598;2023-04-03T11:43:41;13.50;99.90
18930;DHT22;43305;52.186;5.598;2023-04-03T11:46:11;13.40;99.90
18930;DHT22;43305;52.186;5.598;2023-04-03T11:48:45;13.30;99.90
18930;DHT22;43305;52.186;5.598;2023-04-03T11:54:44;13.20;99.90
18930;DHT22;43305;52.186;5.598;2023-04-03T11:57:44;13.60;99.90
18930;DHT22;43305;52.186;5.598;2023-04-03T12:00:47;13.80;99.90
18930;DHT22;43305;52.186;5.598;2023-04-03T12:04:05;13.90;99.90
18930;DHT22;43305;52.186;5.598;2023-04-03T12:07:00;13.90;99.90
18930;DHT22;43305;52.186;5.598;2023-04-03T12:12:35;14.00;99.90
18930;DHT22;43305;52.186;5.598;2023-04-03T12:21:24;14.60;99.90
18930;DHT22;43305;52.186;5.598;2023-04-03T12:24:24;14.90;99.90
18930;DHT22;43305;52.186;5.598;2023-04-03T12:27:03;15.10;99.90
18930;DHT22;43305;52.186;5.598;2023-04-03T12:29:36;14.70;99.90
18930;DHT22;43305;52.186;5.598;2023-04-03T12:32:12;14.70;99.90
18930;DHT22;43305;52.186;5.598;2023-04-03T12:34:53;13.80;99.90
18930;DHT22;43305;52.186;5.598;2023-04-03T12:37:40;13.50;99.90
18930;DHT22;43305;52.186;5.598;2023-04-03T12:40:21;12.70;99.90
18930;DHT22;43305;52.186;5.598;2023-04-03T12:43:02;12.90;99.90
18930;DHT22;43305;52.186;5.598;2023-04-03T12:45:41;13.30;99.90
18930;DHT22;43305;52.186;5.598;2023-04-03T12:48:14;13.40;99.90
18930;DHT22;43305;52.186;5.598;2023-04-03T12:50:43;14.00;99.90
18930;DHT22;43305;52.186;5.598;2023-04-03T12:53:16;13.90;99.90
18930;DHT22;43305;52.186;5.598;2023-04-03T12:55:43;14.30;99.90
18930;DHT22;43305;52.186;5.598;2023-04-03T12:58:21;13.90;99.90
18930;DHT22;43305;52.186;5.598;2023-04-03T13:00:59;14.10;99.90
18930;DHT22;43305;52.186;5.598;2023-04-03T13:03:40;13.50;99.90
18930;DHT22;43305;52.186;5.598;2023-04-03T13:06:17;13.60;99.90
18930;DHT22;43305;52.186;5.598;2023-04-03T13:08:53;13.70;99.90
18930;DHT22;43305;52.186;5.598;2023-04-03T13:11:26;13.80;99.90
18930;DHT22;43305;52.186;5.598;2023-04-03T13:13:55;14.10;99.90
18930;DHT22;43305;52.186;5.598;2023-04-03T13:16:22;14.00;99.90
18930;DHT22;43305;52.186;5.598;2023-04-03T13:18:52;14.20;99.90
18930;DHT22;43305;52.186;5.598;2023-04-03T13:21:24;14.20;99.90
18930;DHT22;43305;52.186;5.598;2023-04-03T13:23:56;14.30;99.90
18930;DHT22;43305;52.186;5.598;2023-04-03T13:26:29;14.30;99.90
18930;DHT22;43305;52.186;5.598;2023-04-03T13:29:05;14.00;99.90
18930;DHT22;43305;52.186;5.598;2023-04-03T13:31:37;14.10;99.90
18930;DHT22;43305;52.186;5.598;2023-04-03T13:34:09;13.70;99.90
18930;DHT22;43305;52.186;5.598;2023-04-03T13:36:43;13.40;99.90
18930;DHT22;43305;52.186;5.598;2023-04-03T13:39:23;13.80;99.90
18930;DHT22;43305;52.186;5.598;2023-04-03T13:41:53;14.20;99.90
18930;DHT22;43305;52.186;5.598;2023-04-03T13:44:32;14.00;99.90
18930;DHT22;43305;52.186;5.598;2023-04-03T13:47:01;14.00;99.90
18930;DHT22;43305;52.186;5.598;2023-04-03T13:49:42;13.90;99.90
18930;DHT22;43305;52.186;5.598;2023-04-03T13:52:23;13.60;99.90
18930;DHT22;43305;52.186;5.598;2023-04-03T13:54:56;13.80;99.90
18930;DHT22;43305;52.186;5.598;2023-04-03T13:57:25;14.20;99.90
18930;DHT22;43305;52.186;5.598;2023-04-03T13:59:52;14.30;99.90
18930;DHT22;43305;52.186;5.598;2023-04-03T14:02:22;14.20;99.90
18930;DHT22;43305;52.186;5.598;2023-04-03T14:04:54;14.00;99.90
18930;DHT22;43305;52.186;5.598;2023-04-03T14:07:30;14.00;99.90
18930;DHT22;43305;52.186;5.598;2023-04-03T14:10:00;14.10;99.90
18930;DHT22;43305;52.186;5.598;2023-04-03T14:12:31;13.90;99.90
18930;DHT22;43305;52.186;5.598;2023-04-03T14:15:01;13.90;99.90
18930;DHT22;43305;52.186;5.598;2023-04-03T14:17:32;14.20;99.90
18930;DHT22;43305;52.186;5.598;2023-04-03T14:20:02;14.30;99.90
18930;DHT22;43305;52.186;5.598;2023-04-03T14:22:31;14.80;99.90
18930;DHT22;43305;52.186;5.598;2023-04-03T14:25:00;15.10;99.90
18930;DHT22;43305;52.186;5.598;2023-04-03T14:27:36;14.70;99.90
18930;DHT22;43305;52.186;5.598;2023-04-03T14:30:08;14.70;99.90
18930;DHT22;43305;52.186;5.598;2023-04-03T14:32:36;14.70;99.90
18930;DHT22;43305;52.186;5.598;2023-04-03T14:35:04;15.10;99.90
18930;DHT22;43305;52.186;5.598;2023-04-03T14:37:43;15.50;99.90
18930;DHT22;43305;52.186;5.598;2023-04-03T14:40:15;15.80;99.90
18930;DHT22;43305;52.186;5.598;2023-04-03T14:42:45;16.20;99.90
18930;DHT22;43305;52.186;5.598;2023-04-03T14:45:15;16.30;99.90
18930;DHT22;43305;52.186;5.598;2023-04-03T14:47:59;15.40;99.90
18930;DHT22;43305;52.186;5.598;2023-04-03T14:50:29;14.50;99.90
18930;DHT22;43305;52.186;5.598;2023-04-03T14:52:58;14.70;99.90
18930;DHT22;43305;52.186;5.598;2023-04-03T14:55:26;14.30;99.90
18930;DHT22;43305;52.186;5.598;2023-04-03T14:57:57;14.00;99.90
18930;DHT22;43305;52.186;5.598;2023-04-03T15:00:28;14.30;99.90
18930;DHT22;43305;52.186;5.598;2023-04-03T15:02:56;14.70;99.90
18930;DHT22;43305;52.186;5.598;2023-04-03T15:05:27;15.10;99.90
18930;DHT22;43305;52.186;5.598;2023-04-03T15:07:57;14.90;99.90
18930;DHT22;43305;52.186;5.598;2023-04-03T15:10:30;14.50;99.90
18930;DHT22;43305;52.186;5.598;2023-04-03T15:12:58;14.30;99.90
18930;DHT22;43305;52.186;5.598;2023-04-03T15:15:29;13.80;99.90
18930;DHT22;43305;52.186;5.598;2023-04-03T15:18:02;13.90;99.90
18930;DHT22;43305;52.186;5.598;2023-04-03T15:20:29;14.00;99.90
18930;DHT22;43305;52.186;5.598;2023-04-03T15:22:59;14.00;99.90
18930;DHT22;43305;52.186;5.598;2023-04-03T15:25:29;14.10;99.90
18930;DHT22;43305;52.186;5.598;2023-04-03T15:28:01;14.50;99.90
18930;DHT22;43305;52.186;5.598;2023-04-03T15:30:29;14.70;99.90
18930;DHT22;43305;52.186;5.598;2023-04-03T15:32:56;14.80;99.90
18930;DHT22;43305;52.186;5.598;2023-04-03T15:35:24;15.10;99.90
18930;DHT22;43305;52.186;5.598;2023-04-03T15:37:51;15.30;99.90
18930;DHT22;43305;52.186;5.598;2023-04-03T15:40:18;14.50;99.90
18930;DHT22;43305;52.186;5.598;2023-04-03T15:42:52;14.40;99.90
18930;DHT22;43305;52.186;5.598;2023-04-03T15:45:23;14.50;99.90
18930;DHT22;43305;52.186;5.598;2023-04-03T15:47:56;14.10;99.90
18930;DHT22;43305;52.186;5.598;2023-04-03T15:50:24;14.10;99.90
18930;DHT22;43305;52.186;5.598;2023-04-03T15:52:51;14.30;99.90
18930;DHT22;43305;52.186;5.598;2023-04-03T15:55:20;14.30;99.90
18930;DHT22;43305;52.186;5.598;2023-04-03T15:57:47;14.10;99.90
18930;DHT22;43305;52.186;5.598;2023-04-03T16:00:22;13.50;99.90
18930;DHT22;43305;52.186;5.598;2023-04-03T16:02:53;13.30;99.90
18930;DHT22;43305;52.186;5.598;2023-04-03T16:05:21;13.40;99.90
18930;DHT22;43305;52.186;5.598;2023-04-03T16:07:50;13.60;99.90
18930;DHT22;43305;52.186;5.598;2023-04-03T16:10:19;13.70;99.90
18930;DHT22;43305;52.186;5.598;2023-04-03T16:12:48;12.90;99.90
18930;DHT22;43305;52.186;5.598;2023-04-03T16:15:19;13.00;99.90